sensor_id;sensor_type;location;lat;lon;timestamp;P1;durP1;ratioP1;P2;durP2;ratioP2
48651;SDS011;34442;52.362;-1.302;2022-09-03T00:02:27;2.85;;;1.73;;
48651;SDS011;34442;52.362;-1.302;2022-09-03T00:08:00;4.35;;;1.98;;
48651;SDS011;34442;52.362;-1.302;2022-09-03T00:10:36;3.22;;;1.80;;
48651;SDS011;34442;52.362;-1.302;2022-09-03T00:13:05;3.33;;;2.00;;
48651;SDS011;34442;52.362;-1.302;2022-09-03T00:15:34;3.47;;;2.00;;
48651;SDS011;34442;52.362;-1.302;2022-09-03T00:18:14;3.40;;;1.90;;
48651;SDS011;34442;52.362;-1.302;2022-09-03T00:20:49;3.67;;;1.88;;
48651;SDS011;34442;52.362;-1.302;2022-09-03T00:23:20;3.90;;;2.30;;
48651;SDS011;34442;52.362;-1.302;2022-09-03T00:25:58;2.88;;;1.77;;
48651;SDS011;34442;52.362;-1.302;2022-09-03T00:28:32;3.70;;;2.00;;
48651;SDS011;34442;52.362;-1.302;2022-09-03T00:31:12;3.92;;;2.00;;
48651;SDS011;34442;52.362;-1.302;2022-09-03T00:33:43;4.00;;;2.13;;
48651;SDS011;34442;52.362;-1.302;2022-09-03T00:36:19;4.75;;;2.17;;
48651;SDS011;34442;52.362;-1.302;2022-09-03T00:38:50;3.42;;;2.05;;
48651;SDS011;34442;52.362;-1.302;2022-09-03T00:47:09;4.20;;;2.40;;
48651;SDS011;34442;52.362;-1.302;2022-09-03T00:49:52;4.45;;;2.85;;
48651;SDS011;34442;52.362;-1.302;2022-09-03T01:00:33;4.15;;;2.58;;
48651;SDS011;34442;52.362;-1.302;2022-09-03T01:03:04;4.53;;;2.35;;
48651;SDS011;34442;52.362;-1.302;2022-09-03T01:16:47;4.35;;;2.58;;
48651;SDS011;34442;52.362;-1.302;2022-09-03T01:22:05;4.85;;;3.08;;
48651;SDS011;34442;52.362;-1.302;2022-09-03T01:28:09;4.70;;;3.00;;
48651;SDS011;34442;52.362;-1.302;2022-09-03T01:33:40;4.57;;;2.78;;
48651;SDS011;34442;52.362;-1.302;2022-09-03T01:36:33;4.57;;;2.75;;
48651;SDS011;34442;52.362;-1.302;2022-09-03T01:39:03;4.07;;;2.63;;
48651;SDS011;34442;52.362;-1.302;2022-09-03T01:47:36;5.10;;;3.20;;
48651;SDS011;34442;52.362;-1.302;2022-09-03T01:56:07;4.38;;;2.85;;
48651;SDS011;34442;52.362;-1.302;2022-09-03T01:58:52;4.30;;;2.50;;
48651;SDS011;34442;52.362;-1.302;2022-09-03T02:01:31;4.97;;;3.17;;
48651;SDS011;34442;52.362;-1.302;2022-09-03T02:04:01;4.78;;;2.53;;
48651;SDS011;34442;52.362;-1.302;2022-09-03T02:06:38;5.18;;;3.47;;
48651;SDS011;34442;52.362;-1.302;2022-09-03T02:09:04;5.53;;;3.70;;
48651;SDS011;34442;52.362;-1.302;2022-09-03T02:11:30;4.60;;;3.03;;
48651;SDS011;34442;52.362;-1.302;2022-09-03T02:13:56;5.93;;;3.80;;
48651;SDS011;34442;52.362;-1.302;2022-09-03T02:16:26;5.53;;;3.63;;
48651;SDS011;34442;52.362;-1.302;2022-09-03T02:19:00;6.13;;;4.28;;
48651;SDS011;34442;52.362;-1.302;2022-09-03T02:21:33;6.60;;;4.05;;
48651;SDS011;34442;52.362;-1.302;2022-09-03T02:24:04;6.78;;;4.13;;
48651;SDS011;34442;52.362;-1.302;2022-09-03T02:26:32;6.25;;;4.25;;
48651;SDS011;34442;52.362;-1.302;2022-09-03T02:29:00;5.57;;;3.67;;
48651;SDS011;34442;52.362;-1.302;2022-09-03T02:31:27;8.02;;;3.97;;
48651;SDS011;34442;52.362;-1.302;2022-09-03T02:33:54;5.15;;;3.42;;
48651;SDS011;34442;52.362;-1.302;2022-09-03T02:36:24;7.25;;;3.80;;
48651;SDS011;34442;52.362;-1.302;2022-09-03T02:38:54;6.15;;;4.00;;
48651;SDS011;34442;52.362;-1.302;2022-09-03T02:41:20;5.15;;;3.28;;
48651;SDS011;34442;52.362;-1.302;2022-09-03T02:46:34;6.70;;;4.47;;
48651;SDS011;34442;52.362;-1.302;2022-09-03T02:49:06;5.68;;;3.50;;
48651;SDS011;34442;52.362;-1.302;2022-09-03T02:51:33;6.13;;;4.30;;
48651;SDS011;34442;52.362;-1.302;2022-09-03T02:54:04;5.72;;;3.85;;
48651;SDS011;34442;52.362;-1.302;2022-09-03T02:56:31;5.82;;;3.88;;
48651;SDS011;34442;52.362;-1.302;2022-09-03T02:58:57;6.43;;;4.45;;
48651;SDS011;34442;52.362;-1.302;2022-09-03T03:01:23;5.85;;;3.92;;
48651;SDS011;34442;52.362;-1.302;2022-09-03T03:03:49;8.38;;;6.18;;
48651;SDS011;34442;52.362;-1.302;2022-09-03T03:06:15;7.75;;;5.57;;
48651;SDS011;34442;52.362;-1.302;2022-09-03T03:08:41;6.57;;;4.63;;
48651;SDS011;34442;52.362;-1.302;2022-09-03T03:11:08;6.13;;;3.95;;
48651;SDS011;34442;52.362;-1.302;2022-09-03T03:13:34;6.20;;;4.63;;
48651;SDS011;34442;52.362;-1.302;2022-09-03T03:16:01;6.55;;;5.03;;
48651;SDS011;34442;52.362;-1.302;2022-09-03T03:18:31;8.32;;;6.18;;
48651;SDS011;34442;52.362;-1.302;2022-09-03T03:21:02;7.90;;;6.45;;
48651;SDS011;34442;52.362;-1.302;2022-09-03T03:23:30;7.50;;;5.78;;
48651;SDS011;34442;52.362;-1.302;2022-09-03T03:25:59;7.13;;;5.15;;
48651;SDS011;34442;52.362;-1.302;2022-09-03T03:28:29;6.53;;;4.80;;
48651;SDS011;34442;52.362;-1.302;2022-09-03T03:31:04;6.72;;;4.40;;
48651;SDS011;34442;52.362;-1.302;2022-09-03T03:33:37;6.35;;;4.38;;
48651;SDS011;34442;52.362;-1.302;2022-09-03T03:36:05;6.40;;;4.53;;
48651;SDS011;34442;52.362;-1.302;2022-09-03T03:38:34;6.13;;;4.30;;
48651;SDS011;34442;52.362;-1.302;2022-09-03T03:41:20;6.63;;;4.53;;
48651;SDS011;34442;52.362;-1.302;2022-09-03T03:43:47;7.60;;;5.55;;
48651;SDS011;34442;52.362;-1.302;2022-09-03T03:46:19;7.15;;;4.85;;
48651;SDS011;34442;52.362;-1.302;2022-09-03T03:48:47;10.25;;;8.32;;
48651;SDS011;34442;52.362;-1.302;2022-09-03T03:51:14;8.80;;;6.55;;
48651;SDS011;34442;52.362;-1.302;2022-09-03T03:53:40;9.55;;;6.50;;
48651;SDS011;34442;52.362;-1.302;2022-09-03T03:56:08;8.18;;;5.68;;
48651;SDS011;34442;52.362;-1.302;2022-09-03T03:58:36;7.13;;;4.75;;
48651;SDS011;34442;52.362;-1.302;2022-09-03T04:01:08;7.28;;;4.72;;
48651;SDS011;34442;52.362;-1.302;2022-09-03T04:03:36;7.85;;;5.03;;
48651;SDS011;34442;52.362;-1.302;2022-09-03T04:06:02;7.68;;;5.15;;
48651;SDS011;34442;52.362;-1.302;2022-09-03T04:08:29;7.65;;;5.35;;
48651;SDS011;34442;52.362;-1.302;2022-09-03T04:10:58;7.80;;;4.68;;
48651;SDS011;34442;52.362;-1.302;2022-09-03T04:13:29;7.63;;;4.90;;
48651;SDS011;34442;52.362;-1.302;2022-09-03T04:18:52;7.57;;;5.40;;
48651;SDS011;34442;52.362;-1.302;2022-09-03T04:21:21;8.07;;;5.65;;
48651;SDS011;34442;52.362;-1.302;2022-09-03T04:23:48;8.55;;;4.70;;
48651;SDS011;34442;52.362;-1.302;2022-09-03T04:26:16;7.13;;;4.97;;
48651;SDS011;34442;52.362;-1.302;2022-09-03T04:28:44;7.65;;;5.25;;
48651;SDS011;34442;52.362;-1.302;2022-09-03T04:31:11;8.15;;;5.85;;
48651;SDS011;34442;52.362;-1.302;2022-09-03T04:33:38;6.82;;;4.60;;
48651;SDS011;34442;52.362;-1.302;2022-09-03T04:36:15;7.75;;;5.35;;
48651;SDS011;34442;52.362;-1.302;2022-09-03T04:38:44;7.55;;;5.28;;
48651;SDS011;34442;52.362;-1.302;2022-09-03T04:41:12;7.72;;;5.22;;
48651;SDS011;34442;52.362;-1.302;2022-09-03T04:43:40;7.25;;;5.10;;
48651;SDS011;34442;52.362;-1.302;2022-09-03T04:46:08;7.38;;;4.78;;
48651;SDS011;34442;52.362;-1.302;2022-09-03T04:48:35;9.25;;;6.10;;
48651;SDS011;34442;52.362;-1.302;2022-09-03T04:51:09;7.93;;;5.85;;
48651;SDS011;34442;52.362;-1.302;2022-09-03T04:53:38;7.18;;;5.05;;
48651;SDS011;34442;52.362;-1.302;2022-09-03T04:56:15;7.97;;;4.70;;
48651;SDS011;34442;52.362;-1.302;2022-09-03T04:58:55;7.82;;;5.72;;
48651;SDS011;34442;52.362;-1.302;2022-09-03T05:01:23;7.60;;;5.53;;
48651;SDS011;34442;52.362;-1.302;2022-09-03T05:03:51;7.32;;;5.75;;
48651;SDS011;34442;52.362;-1.302;2022-09-03T05:06:17;8.43;;;5.72;;
48651;SDS011;34442;52.362;-1.302;2022-09-03T05:08:46;7.40;;;5.22;;
48651;SDS011;34442;52.362;-1.302;2022-09-03T05:11:13;8.88;;;6.45;;
48651;SDS011;34442;52.362;-1.302;2022-09-03T05:13:39;7.70;;;5.05;;
48651;SDS011;34442;52.362;-1.302;2022-09-03T05:16:09;9.60;;;6.97;;
48651;SDS011;34442;52.362;-1.302;2022-09-03T05:18:36;9.40;;;5.93;;
48651;SDS011;34442;52.362;-1.302;2022-09-03T05:21:03;7.63;;;5.68;;
48651;SDS011;34442;52.362;-1.302;2022-09-03T05:23:31;8.27;;;5.55;;
48651;SDS011;34442;52.362;-1.302;2022-09-03T05:26:01;7.15;;;4.70;;
48651;SDS011;34442;52.362;-1.302;2022-09-03T05:28:34;8.02;;;5.25;;
48651;SDS011;34442;52.362;-1.302;2022-09-03T05:31:05;9.63;;;6.40;;
48651;SDS011;34442;52.362;-1.302;2022-09-03T05:33:34;9.77;;;6.93;;
48651;SDS011;34442;52.362;-1.302;2022-09-03T05:36:07;8.18;;;5.57;;
48651;SDS011;34442;52.362;-1.302;2022-09-03T05:38:34;8.25;;;5.57;;
48651;SDS011;34442;52.362;-1.302;2022-09-03T05:41:01;7.03;;;4.70;;
48651;SDS011;34442;52.362;-1.302;2022-09-03T05:43:29;7.88;;;5.32;;
48651;SDS011;34442;52.362;-1.302;2022-09-03T05:45:59;8.55;;;5.65;;
48651;SDS011;34442;52.362;-1.302;2022-09-03T05:48:27;8.30;;;5.88;;
48651;SDS011;34442;52.362;-1.302;2022-09-03T05:51:01;8.73;;;6.18;;
48651;SDS011;34442;52.362;-1.302;2022-09-03T05:53:29;11.02;;;7.93;;
48651;SDS011;34442;52.362;-1.302;2022-09-03T05:55:57;8.60;;;5.82;;
48651;SDS011;34442;52.362;-1.302;2022-09-03T05:58:24;9.75;;;6.90;;
48651;SDS011;34442;52.362;-1.302;2022-09-03T06:00:55;8.65;;;5.90;;
48651;SDS011;34442;52.362;-1.302;2022-09-03T06:03:21;10.00;;;7.43;;
48651;SDS011;34442;52.362;-1.302;2022-09-03T06:05:50;7.88;;;5.40;;
48651;SDS011;34442;52.362;-1.302;2022-09-03T06:08:17;8.65;;;5.43;;
48651;SDS011;34442;52.362;-1.302;2022-09-03T06:10:43;8.05;;;6.05;;
48651;SDS011;34442;52.362;-1.302;2022-09-03T06:13:09;7.30;;;5.03;;
48651;SDS011;34442;52.362;-1.302;2022-09-03T06:15:36;7.60;;;5.05;;
48651;SDS011;34442;52.362;-1.302;2022-09-03T06:18:02;8.07;;;5.88;;
48651;SDS011;34442;52.362;-1.302;2022-09-03T06:20:29;9.20;;;6.45;;
48651;SDS011;34442;52.362;-1.302;2022-09-03T06:22:57;8.05;;;5.85;;
48651;SDS011;34442;52.362;-1.302;2022-09-03T06:25:23;6.72;;;4.60;;
48651;SDS011;34442;52.362;-1.302;2022-09-03T06:27:49;10.90;;;8.27;;
48651;SDS011;34442;52.362;-1.302;2022-09-03T06:30:15;9.02;;;5.50;;
48651;SDS011;34442;52.362;-1.302;2022-09-03T06:32:44;8.10;;;5.35;;
48651;SDS011;34442;52.362;-1.302;2022-09-03T06:35:11;8.63;;;6.13;;
48651;SDS011;34442;52.362;-1.302;2022-09-03T06:37:38;8.55;;;5.70;;
48651;SDS011;34442;52.362;-1.302;2022-09-03T06:40:05;8.35;;;5.95;;
48651;SDS011;34442;52.362;-1.302;2022-09-03T06:42:33;8.57;;;6.60;;
48651;SDS011;34442;52.362;-1.302;2022-09-03T06:44:59;7.03;;;4.40;;
48651;SDS011;34442;52.362;-1.302;2022-09-03T06:47:26;8.77;;;5.78;;
48651;SDS011;34442;52.362;-1.302;2022-09-03T06:49:53;7.28;;;4.35;;
48651;SDS011;34442;52.362;-1.302;2022-09-03T06:52:19;7.18;;;5.00;;
48651;SDS011;34442;52.362;-1.302;2022-09-03T06:54:45;7.20;;;4.32;;
48651;SDS011;34442;52.362;-1.302;2022-09-03T06:57:11;6.97;;;4.60;;
48651;SDS011;34442;52.362;-1.302;2022-09-03T06:59:37;8.30;;;5.10;;
48651;SDS011;34442;52.362;-1.302;2022-09-03T07:02:03;7.47;;;4.05;;
48651;SDS011;34442;52.362;-1.302;2022-09-03T07:04:29;6.63;;;3.67;;
48651;SDS011;34442;52.362;-1.302;2022-09-03T07:06:55;5.93;;;3.55;;
48651;SDS011;34442;52.362;-1.302;2022-09-03T07:09:22;6.88;;;4.15;;
48651;SDS011;34442;52.362;-1.302;2022-09-03T07:11:48;6.63;;;4.68;;
48651;SDS011;34442;52.362;-1.302;2022-09-03T07:14:15;6.22;;;4.43;;
48651;SDS011;34442;52.362;-1.302;2022-09-03T07:16:42;5.57;;;3.45;;
48651;SDS011;34442;52.362;-1.302;2022-09-03T07:19:09;6.53;;;4.18;;
48651;SDS011;34442;52.362;-1.302;2022-09-03T07:21:36;6.88;;;4.85;;
48651;SDS011;34442;52.362;-1.302;2022-09-03T07:24:03;6.97;;;4.72;;
48651;SDS011;34442;52.362;-1.302;2022-09-03T07:26:31;6.80;;;4.57;;
48651;SDS011;34442;52.362;-1.302;2022-09-03T07:28:58;6.72;;;3.95;;
48651;SDS011;34442;52.362;-1.302;2022-09-03T07:31:28;6.53;;;4.72;;
48651;SDS011;34442;52.362;-1.302;2022-09-03T07:33:57;6.25;;;4.22;;
48651;SDS011;34442;52.362;-1.302;2022-09-03T07:36:25;6.45;;;4.47;;
48651;SDS011;34442;52.362;-1.302;2022-09-03T07:38:54;6.45;;;4.20;;
48651;SDS011;34442;52.362;-1.302;2022-09-03T07:41:21;5.88;;;3.58;;
48651;SDS011;34442;52.362;-1.302;2022-09-03T07:43:49;4.70;;;3.00;;
48651;SDS011;34442;52.362;-1.302;2022-09-03T07:46:19;4.85;;;2.83;;
48651;SDS011;34442;52.362;-1.302;2022-09-03T07:48:50;4.80;;;2.55;;
48651;SDS011;34442;52.362;-1.302;2022-09-03T07:51:21;4.97;;;2.60;;
48651;SDS011;34442;52.362;-1.302;2022-09-03T07:53:51;4.45;;;2.42;;
48651;SDS011;34442;52.362;-1.302;2022-09-03T07:56:20;4.97;;;3.10;;
48651;SDS011;34442;52.362;-1.302;2022-09-03T07:58:46;4.93;;;2.88;;
48651;SDS011;34442;52.362;-1.302;2022-09-03T08:01:13;6.22;;;4.32;;
48651;SDS011;34442;52.362;-1.302;2022-09-03T08:03:45;5.53;;;3.30;;
48651;SDS011;34442;52.362;-1.302;2022-09-03T08:06:13;5.07;;;3.05;;
48651;SDS011;34442;52.362;-1.302;2022-09-03T08:08:40;3.90;;;2.28;;
48651;SDS011;34442;52.362;-1.302;2022-09-03T08:11:11;4.50;;;2.53;;
48651;SDS011;34442;52.362;-1.302;2022-09-03T08:13:42;3.88;;;2.15;;
48651;SDS011;34442;52.362;-1.302;2022-09-03T08:16:14;3.60;;;2.10;;
48651;SDS011;34442;52.362;-1.302;2022-09-03T08:18:41;4.10;;;2.38;;
48651;SDS011;34442;52.362;-1.302;2022-09-03T08:21:11;3.80;;;1.83;;
48651;SDS011;34442;52.362;-1.302;2022-09-03T08:23:40;3.10;;;1.90;;
48651;SDS011;34442;52.362;-1.302;2022-09-03T08:26:08;3.30;;;1.80;;
48651;SDS011;34442;52.362;-1.302;2022-09-03T08:28:35;3.28;;;1.73;;
48651;SDS011;34442;52.362;-1.302;2022-09-03T08:31:06;2.53;;;1.25;;
48651;SDS011;34442;52.362;-1.302;2022-09-03T08:33:39;2.92;;;1.60;;
48651;SDS011;34442;52.362;-1.302;2022-09-03T08:36:09;3.03;;;1.67;;
48651;SDS011;34442;52.362;-1.302;2022-09-03T08:38:40;2.75;;;1.40;;
48651;SDS011;34442;52.362;-1.302;2022-09-03T08:41:15;2.67;;;1.60;;
48651;SDS011;34442;52.362;-1.302;2022-09-03T08:46:15;2.75;;;1.50;;
48651;SDS011;34442;52.362;-1.302;2022-09-03T08:48:42;3.58;;;2.03;;
48651;SDS011;34442;52.362;-1.302;2022-09-03T08:51:08;3.38;;;1.92;;
48651;SDS011;34442;52.362;-1.302;2022-09-03T08:53:47;2.92;;;1.60;;
48651;SDS011;34442;52.362;-1.302;2022-09-03T08:56:20;3.17;;;1.60;;
48651;SDS011;34442;52.362;-1.302;2022-09-03T08:58:51;2.65;;;1.63;;
48651;SDS011;34442;52.362;-1.302;2022-09-03T09:04:02;3.40;;;1.85;;
48651;SDS011;34442;52.362;-1.302;2022-09-03T09:09:04;3.13;;;1.60;;
48651;SDS011;34442;52.362;-1.302;2022-09-03T09:15:12;2.13;;;1.23;;
48651;SDS011;34442;52.362;-1.302;2022-09-03T09:23:03;2.88;;;1.48;;
48651;SDS011;34442;52.362;-1.302;2022-09-03T09:25:33;2.47;;;1.45;;
48651;SDS011;34442;52.362;-1.302;2022-09-03T09:28:16;3.97;;;2.38;;
48651;SDS011;34442;52.362;-1.302;2022-09-03T09:30:45;3.40;;;1.70;;
48651;SDS011;34442;52.362;-1.302;2022-09-03T09:33:14;2.38;;;1.45;;
48651;SDS011;34442;52.362;-1.302;2022-09-03T09:35:41;3.17;;;1.70;;
48651;SDS011;34442;52.362;-1.302;2022-09-03T09:38:08;2.65;;;1.42;;
48651;SDS011;34442;52.362;-1.302;2022-09-03T09:40:36;2.17;;;1.30;;
48651;SDS011;34442;52.362;-1.302;2022-09-03T09:43:16;2.10;;;1.23;;
48651;SDS011;34442;52.362;-1.302;2022-09-03T09:45:49;2.33;;;1.30;;
48651;SDS011;34442;52.362;-1.302;2022-09-03T09:48:19;3.70;;;1.50;;
48651;SDS011;34442;52.362;-1.302;2022-09-03T09:50:46;3.50;;;1.50;;
48651;SDS011;34442;52.362;-1.302;2022-09-03T09:53:12;2.20;;;1.30;;
48651;SDS011;34442;52.362;-1.302;2022-09-03T09:55:50;2.65;;;1.20;;
48651;SDS011;34442;52.362;-1.302;2022-09-03T09:58:20;1.85;;;1.13;;
48651;SDS011;34442;52.362;-1.302;2022-09-03T10:01:22;2.88;;;1.63;;
48651;SDS011;34442;52.362;-1.302;2022-09-03T10:03:48;2.85;;;1.75;;
48651;SDS011;34442;52.362;-1.302;2022-09-03T10:06:23;2.97;;;1.42;;
48651;SDS011;34442;52.362;-1.302;2022-09-03T10:09:13;2.42;;;1.40;;
48651;SDS011;34442;52.362;-1.302;2022-09-03T10:11:49;3.03;;;1.70;;
48651;SDS011;34442;52.362;-1.302;2022-09-03T10:14:28;2.72;;;1.50;;
48651;SDS011;34442;52.362;-1.302;2022-09-03T10:17:02;2.47;;;1.50;;
48651;SDS011;34442;52.362;-1.302;2022-09-03T10:22:42;2.97;;;1.73;;
48651;SDS011;34442;52.362;-1.302;2022-09-03T10:25:14;3.63;;;1.90;;
48651;SDS011;34442;52.362;-1.302;2022-09-03T10:27:41;2.95;;;1.52;;
48651;SDS011;34442;52.362;-1.302;2022-09-03T10:30:10;3.08;;;1.77;;
48651;SDS011;34442;52.362;-1.302;2022-09-03T10:35:28;2.60;;;1.55;;
48651;SDS011;34442;52.362;-1.302;2022-09-03T10:38:40;2.53;;;1.58;;
48651;SDS011;34442;52.362;-1.302;2022-09-03T10:41:01;2.78;;;1.63;;
48651;SDS011;34442;52.362;-1.302;2022-09-03T10:46:10;3.67;;;2.08;;
48651;SDS011;34442;52.362;-1.302;2022-09-03T10:52:11;4.50;;;1.92;;
48651;SDS011;34442;52.362;-1.302;2022-09-03T10:57:53;4.07;;;1.70;;
48651;SDS011;34442;52.362;-1.302;2022-09-03T11:00:35;3.00;;;1.65;;
48651;SDS011;34442;52.362;-1.302;2022-09-03T11:03:19;2.67;;;1.40;;
48651;SDS011;34442;52.362;-1.302;2022-09-03T11:11:13;2.90;;;1.60;;
48651;SDS011;34442;52.362;-1.302;2022-09-03T11:16:20;3.03;;;1.80;;
48651;SDS011;34442;52.362;-1.302;2022-09-03T11:21:25;4.35;;;2.28;;
48651;SDS011;34442;52.362;-1.302;2022-09-03T11:23:59;3.08;;;1.65;;
48651;SDS011;34442;52.362;-1.302;2022-09-03T11:26:33;3.20;;;1.90;;
48651;SDS011;34442;52.362;-1.302;2022-09-03T11:29:03;2.80;;;1.55;;
48651;SDS011;34442;52.362;-1.302;2022-09-03T11:31:50;2.70;;;1.50;;
48651;SDS011;34442;52.362;-1.302;2022-09-03T11:34:28;2.70;;;1.63;;
48651;SDS011;34442;52.362;-1.302;2022-09-03T11:37:04;2.85;;;1.58;;
48651;SDS011;34442;52.362;-1.302;2022-09-03T11:39:35;2.83;;;1.45;;
48651;SDS011;34442;52.362;-1.302;2022-09-03T11:42:08;2.25;;;1.30;;
48651;SDS011;34442;52.362;-1.302;2022-09-03T11:44:43;2.38;;;1.30;;
48651;SDS011;34442;52.362;-1.302;2022-09-03T11:47:23;1.25;;;1.05;;
48651;SDS011;34442;52.362;-1.302;2022-09-03T11:50:15;2.60;;;1.77;;
48651;SDS011;34442;52.362;-1.302;2022-09-03T11:52:46;2.28;;;1.38;;
48651;SDS011;34442;52.362;-1.302;2022-09-03T11:55:29;2.33;;;1.33;;
48651;SDS011;34442;52.362;-1.302;2022-09-03T11:58:21;2.20;;;1.30;;
48651;SDS011;34442;52.362;-1.302;2022-09-03T12:00:53;2.50;;;1.38;;
48651;SDS011;34442;52.362;-1.302;2022-09-03T12:06:14;1.95;;;1.17;;
48651;SDS011;34442;52.362;-1.302;2022-09-03T12:19:31;1.73;;;1.27;;
48651;SDS011;34442;52.362;-1.302;2022-09-03T12:22:18;3.28;;;1.95;;
48651;SDS011;34442;52.362;-1.302;2022-09-03T12:24:45;3.38;;;1.85;;
48651;SDS011;34442;52.362;-1.302;2022-09-03T12:27:13;1.92;;;1.23;;
48651;SDS011;34442;52.362;-1.302;2022-09-03T12:29:56;2.38;;;1.30;;
48651;SDS011;34442;52.362;-1.302;2022-09-03T12:32:28;2.63;;;1.45;;
48651;SDS011;34442;52.362;-1.302;2022-09-03T12:35:15;2.38;;;1.50;;
48651;SDS011;34442;52.362;-1.302;2022-09-03T12:37:43;3.60;;;2.17;;
48651;SDS011;34442;52.362;-1.302;2022-09-03T12:40:17;3.10;;;1.80;;
48651;SDS011;34442;52.362;-1.302;2022-09-03T12:42:46;2.83;;;1.50;;
48651;SDS011;34442;52.362;-1.302;2022-09-03T12:45:12;3.25;;;1.40;;
48651;SDS011;34442;52.362;-1.302;2022-09-03T12:47:41;2.88;;;1.58;;
48651;SDS011;34442;52.362;-1.302;2022-09-03T12:50:09;3.15;;;2.00;;
48651;SDS011;34442;52.362;-1.302;2022-09-03T12:55:37;3.20;;;1.90;;
48651;SDS011;34442;52.362;-1.302;2022-09-03T13:05:56;2.08;;;1.35;;
48651;SDS011;34442;52.362;-1.302;2022-09-03T13:08:31;2.20;;;1.40;;
48651;SDS011;34442;52.362;-1.302;2022-09-03T13:11:04;2.33;;;1.40;;
48651;SDS011;34442;52.362;-1.302;2022-09-03T13:13:31;2.63;;;1.45;;
48651;SDS011;34442;52.362;-1.302;2022-09-03T13:19:07;4.15;;;1.50;;
48651;SDS011;34442;52.362;-1.302;2022-09-03T13:21:44;3.42;;;1.88;;
48651;SDS011;34442;52.362;-1.302;2022-09-03T13:37:40;2.28;;;1.50;;
48651;SDS011;34442;52.362;-1.302;2022-09-03T13:45:45;2.90;;;1.50;;
48651;SDS011;34442;52.362;-1.302;2022-09-03T13:48:19;1.92;;;1.63;;
48651;SDS011;34442;52.362;-1.302;2022-09-03T13:58:59;2.50;;;1.48;;
48651;SDS011;34442;52.362;-1.302;2022-09-03T14:04:21;2.10;;;1.30;;
48651;SDS011;34442;52.362;-1.302;2022-09-03T14:06:58;2.03;;;1.23;;
48651;SDS011;34442;52.362;-1.302;2022-09-03T14:09:38;2.13;;;1.30;;
48651;SDS011;34442;52.362;-1.302;2022-09-03T14:12:21;2.63;;;1.63;;
48651;SDS011;34442;52.362;-1.302;2022-09-03T14:15:19;3.95;;;1.92;;
48651;SDS011;34442;52.362;-1.302;2022-09-03T14:24:20;2.25;;;1.40;;
48651;SDS011;34442;52.362;-1.302;2022-09-03T14:26:51;2.80;;;1.58;;
48651;SDS011;34442;52.362;-1.302;2022-09-03T14:29:24;2.92;;;1.70;;
48651;SDS011;34442;52.362;-1.302;2022-09-03T14:40:13;2.40;;;1.55;;
48651;SDS011;34442;52.362;-1.302;2022-09-03T14:50:39;2.25;;;1.45;;
48651;SDS011;34442;52.362;-1.302;2022-09-03T14:53:20;2.40;;;1.33;;
48651;SDS011;34442;52.362;-1.302;2022-09-03T15:01:35;3.08;;;1.75;;
48651;SDS011;34442;52.362;-1.302;2022-09-03T15:11:58;3.90;;;2.30;;
48651;SDS011;34442;52.362;-1.302;2022-09-03T15:14:34;4.00;;;2.30;;
48651;SDS011;34442;52.362;-1.302;2022-09-03T15:17:16;3.50;;;1.85;;
48651;SDS011;34442;52.362;-1.302;2022-09-03T15:20:00;3.63;;;1.90;;
48651;SDS011;34442;52.362;-1.302;2022-09-03T15:25:16;3.38;;;1.80;;
48651;SDS011;34442;52.362;-1.302;2022-09-03T15:28:09;3.35;;;1.80;;
48651;SDS011;34442;52.362;-1.302;2022-09-03T15:30:55;4.13;;;2.58;;
48651;SDS011;34442;52.362;-1.302;2022-09-03T15:33:35;4.38;;;2.00;;
48651;SDS011;34442;52.362;-1.302;2022-09-03T15:44:20;3.63;;;2.08;;
48651;SDS011;34442;52.362;-1.302;2022-09-03T15:46:52;3.17;;;1.90;;
48651;SDS011;34442;52.362;-1.302;2022-09-03T15:55:10;2.35;;;1.35;;
48651;SDS011;34442;52.362;-1.302;2022-09-03T16:00:20;2.30;;;1.40;;
48651;SDS011;34442;52.362;-1.302;2022-09-03T16:05:54;2.42;;;1.67;;
48651;SDS011;34442;52.362;-1.302;2022-09-03T16:11:31;2.97;;;1.83;;
48651;SDS011;34442;52.362;-1.302;2022-09-03T16:21:59;3.47;;;1.92;;
48651;SDS011;34442;52.362;-1.302;2022-09-03T16:24:32;3.80;;;1.98;;
48651;SDS011;34442;52.362;-1.302;2022-09-03T16:27:10;2.85;;;1.80;;
48651;SDS011;34442;52.362;-1.302;2022-09-03T16:29:44;2.53;;;1.60;;
48651;SDS011;34442;52.362;-1.302;2022-09-03T16:38:27;2.45;;;1.52;;
48651;SDS011;34442;52.362;-1.302;2022-09-03T16:41:39;2.80;;;1.52;;
48651;SDS011;34442;52.362;-1.302;2022-09-03T16:46:45;2.65;;;1.60;;
48651;SDS011;34442;52.362;-1.302;2022-09-03T16:52:17;3.17;;;1.70;;
48651;SDS011;34442;52.362;-1.302;2022-09-03T17:06:21;1.58;;;1.00;;
48651;SDS011;34442;52.362;-1.302;2022-09-03T17:14:39;2.15;;;1.25;;
48651;SDS011;34442;52.362;-1.302;2022-09-03T17:20:07;2.53;;;1.50;;
48651;SDS011;34442;52.362;-1.302;2022-09-03T17:31:10;2.55;;;1.52;;
48651;SDS011;34442;52.362;-1.302;2022-09-03T17:36:14;2.97;;;1.90;;
48651;SDS011;34442;52.362;-1.302;2022-09-03T17:49:50;2.85;;;2.05;;
48651;SDS011;34442;52.362;-1.302;2022-09-03T17:55:12;2.85;;;1.60;;
48651;SDS011;34442;52.362;-1.302;2022-09-03T17:57:51;3.17;;;1.80;;
48651;SDS011;34442;52.362;-1.302;2022-09-03T18:00:35;2.70;;;1.65;;
48651;SDS011;34442;52.362;-1.302;2022-09-03T18:03:10;3.88;;;1.90;;
48651;SDS011;34442;52.362;-1.302;2022-09-03T18:05:44;3.30;;;1.80;;
48651;SDS011;34442;52.362;-1.302;2022-09-03T18:08:19;2.83;;;1.50;;
48651;SDS011;34442;52.362;-1.302;2022-09-03T18:11:00;2.75;;;1.63;;
48651;SDS011;34442;52.362;-1.302;2022-09-03T18:18:42;3.15;;;1.75;;
48651;SDS011;34442;52.362;-1.302;2022-09-03T18:21:22;2.70;;;1.52;;
48651;SDS011;34442;52.362;-1.302;2022-09-03T18:30:13;2.92;;;1.60;;
48651;SDS011;34442;52.362;-1.302;2022-09-03T18:32:59;3.00;;;1.45;;
48651;SDS011;34442;52.362;-1.302;2022-09-03T18:35:43;2.15;;;1.13;;
48651;SDS011;34442;52.362;-1.302;2022-09-03T18:38:30;2.28;;;1.40;;
48651;SDS011;34442;52.362;-1.302;2022-09-03T18:41:23;2.13;;;1.42;;
48651;SDS011;34442;52.362;-1.302;2022-09-03T18:50:23;2.85;;;1.50;;
48651;SDS011;34442;52.362;-1.302;2022-09-03T18:56:46;2.97;;;1.70;;
48651;SDS011;34442;52.362;-1.302;2022-09-03T19:03:09;3.58;;;1.45;;
48651;SDS011;34442;52.362;-1.302;2022-09-03T19:12:50;2.70;;;1.45;;
48651;SDS011;34442;52.362;-1.302;2022-09-03T19:22:17;2.15;;;1.17;;
48651;SDS011;34442;52.362;-1.302;2022-09-03T19:25:13;2.60;;;1.25;;
48651;SDS011;34442;52.362;-1.302;2022-09-03T19:39:43;1.98;;;1.20;;
48651;SDS011;34442;52.362;-1.302;2022-09-03T19:42:43;2.03;;;1.13;;
48651;SDS011;34442;52.362;-1.302;2022-09-03T19:51:31;3.08;;;1.50;;
48651;SDS011;34442;52.362;-1.302;2022-09-03T19:54:23;2.80;;;1.50;;
48651;SDS011;34442;52.362;-1.302;2022-09-03T19:57:12;2.25;;;1.27;;
48651;SDS011;34442;52.362;-1.302;2022-09-03T19:59:59;3.10;;;1.63;;
48651;SDS011;34442;52.362;-1.302;2022-09-03T20:02:46;2.10;;;1.38;;
48651;SDS011;34442;52.362;-1.302;2022-09-03T20:05:31;1.92;;;1.17;;
48651;SDS011;34442;52.362;-1.302;2022-09-03T20:08:18;2.10;;;1.30;;
48651;SDS011;34442;52.362;-1.302;2022-09-03T20:11:05;2.58;;;1.40;;
48651;SDS011;34442;52.362;-1.302;2022-09-03T20:13:42;2.20;;;1.25;;
48651;SDS011;34442;52.362;-1.302;2022-09-03T20:16:28;2.45;;;1.30;;
48651;SDS011;34442;52.362;-1.302;2022-09-03T20:19:07;2.05;;;1.33;;
48651;SDS011;34442;52.362;-1.302;2022-09-03T20:30:31;1.73;;;1.10;;
48651;SDS011;34442;52.362;-1.302;2022-09-03T20:35:42;2.60;;;1.13;;
48651;SDS011;34442;52.362;-1.302;2022-09-03T20:41:02;3.15;;;1.70;;
48651;SDS011;34442;52.362;-1.302;2022-09-03T20:43:54;1.88;;;1.10;;
48651;SDS011;34442;52.362;-1.302;2022-09-03T20:52:54;1.55;;;1.00;;
48651;SDS011;34442;52.362;-1.302;2022-09-03T20:55:38;1.58;;;1.10;;
48651;SDS011;34442;52.362;-1.302;2022-09-03T20:58:09;1.98;;;1.02;;
48651;SDS011;34442;52.362;-1.302;2022-09-03T21:00:46;1.98;;;1.10;;
48651;SDS011;34442;52.362;-1.302;2022-09-03T21:03:29;0.80;;;0.75;;
48651;SDS011;34442;52.362;-1.302;2022-09-03T21:06:14;1.98;;;1.10;;